Time;durP1;ratioP1;P1;durP2;ratioP2;P2;SDS_P1;SDS_P2;PMS_P1;PMS_P2;Temp;Humidity;BMP_temperature;BMP_pressure;BME280_temperature;BME280_humidity;BME280_pressure;Samples;Min_cycle;Max_cycle;Signal;HPM_P1;HPM_P2
2023/04/30 00:00:32;;;;;;;14.85;7.80;;;7.10;99.90;;;;;;4964165;28;20049;-58
2023/04/30 00:02:57;;;;;;;14.55;7.85;;;7.10;99.90;;;;;;4964631;28;20046;-63
2023/04/30 00:05:23;;;;;;;11.10;6.95;;;7.10;99.90;;;;;;4965233;28;20058;-64
2023/04/30 00:07:49;;;;;;;13.90;7.20;;;7.10;99.90;;;;;;4963564;28;20051;-62
2023/04/30 00:10:14;;;;;;;18.73;7.90;;;7.00;99.90;;;;;;4963939;28;20043;-68
2023/04/30 00:12:40;;;;;;;12.77;6.93;;;7.00;99.90;;;;;;4964514;28;20494;-61
2023/04/30 00:15:06;;;;;;;10.95;6.85;;;6.90;99.90;;;;;;4963811;28;20150;-66
2023/04/30 00:17:32;;;;;;;12.48;7.35;;;6.80;99.90;;;;;;4964947;28;20057;-66
2023/04/30 00:19:57;;;;;;;12.32;7.43;;;6.70;99.90;;;;;;4963157;28;20054;-59
2023/04/30 00:22:23;;;;;;;14.52;7.35;;;6.70;99.90;;;;;;4964311;28;20441;-67
2023/04/30 00:24:48;;;;;;;13.80;6.82;;;6.60;99.90;;;;;;4965226;28;20086;-65
2023/04/30 00:27:14;;;;;;;12.43;6.78;;;6.60;99.90;;;;;;4964341;28;20555;-55
2023/04/30 00:29:40;;;;;;;12.00;7.10;;;6.60;99.90;;;;;;4963699;28;20035;-63
2023/04/30 00:32:05;;;;;;;10.23;6.53;;;6.60;99.90;;;;;;4964496;28;20043;-62
2023/04/30 00:34:31;;;;;;;10.88;6.70;;;6.70;99.90;;;;;;4964743;28;20039;-55
2023/04/30 00:36:57;;;;;;;16.02;8.32;;;6.70;99.90;;;;;;4963494;28;20046;-66
2023/04/30 00:39:22;;;;;;;13.45;8.48;;;6.60;99.90;;;;;;4964144;28;20039;-63
2023/04/30 00:41:48;;;;;;;13.73;7.57;;;6.50;99.90;;;;;;4965296;28;20035;-56
2023/04/30 00:44:14;;;;;;;10.95;6.68;;;6.50;99.90;;;;;;4963518;28;20047;-58
2023/04/30 00:46:39;;;;;;;11.77;7.20;;;6.40;99.90;;;;;;4964282;28;20834;-68
2023/04/30 00:49:05;;;;;;;12.43;7.15;;;6.30;99.90;;;;;;4964616;28;20560;-58
2023/04/30 00:51:32;;;;;;;11.57;7.63;;;6.40;99.90;;;;;;4964237;28;20725;-63
2023/04/30 00:54:01;;;;;;;11.15;7.18;;;6.20;99.90;;;;;;4963607;28;20053;-59
2023/04/30 00:56:28;;;;;;;12.52;7.15;;;6.20;99.90;;;;;;4964207;28;20465;-68
2023/04/30 00:58:56;;;;;;;15.48;7.30;;;6.20;99.90;;;;;;4961428;28;20390;-68
2023/04/30 01:01:27;;;;;;;13.52;7.35;;;6.20;99.90;;;;;;4963546;28;20096;-64
2023/04/30 01:03:53;;;;;;;13.63;7.25;;;6.20;99.90;;;;;;4964194;28;20039;-63
2023/04/30 01:06:18;;;;;;;11.93;7.18;;;6.10;99.90;;;;;;4964377;28;20324;-67
2023/04/30 01:08:44;;;;;;;13.02;7.00;;;6.10;99.90;;;;;;4963365;28;20047;-57
2023/04/30 01:11:13;;;;;;;11.48;7.50;;;6.10;99.90;;;;;;4964102;28;20250;-63
2023/04/30 01:13:50;;;;;;;18.05;7.82;;;6.10;99.90;;;;;;4963220;28;20293;-57
2023/04/30 01:16:24;;;;;;;15.20;7.72;;;6.30;99.90;;;;;;4963281;28;20090;-58
2023/04/30 01:19:03;;;;;;;14.27;7.53;;;6.00;99.90;;;;;;4962758;28;20050;-63
2023/04/30 01:21:32;;;;;;;13.95;7.38;;;6.00;99.90;;;;;;4976198;28;20050;-62
2023/04/30 01:24:12;;;;;;;11.88;6.80;;;6.10;99.90;;;;;;4982628;28;20510;-68
2023/04/30 01:26:53;;;;;;;10.38;7.07;;;5.90;99.90;;;;;;4983155;28;20043;-60
2023/04/30 01:29:20;;;;;;;15.00;7.38;;;5.80;99.90;;;;;;4982507;28;20449;-58
2023/04/30 01:31:46;;;;;;;14.45;7.55;;;5.60;99.90;;;;;;4982514;28;20412;-58
2023/04/30 01:34:12;;;;;;;10.55;7.15;;;5.60;99.90;;;;;;4963226;28;20130;-67
2023/04/30 01:37:15;;;;;;;10.18;7.45;;;5.60;99.90;;;;;;4963504;28;20102;-67
2023/04/30 01:40:00;;;;;;;11.10;7.60;;;5.60;99.90;;;;;;4963794;28;20125;-67
2023/04/30 01:42:29;;;;;;;11.90;7.95;;;5.60;99.90;;;;;;4963326;28;20053;-59
2023/04/30 01:45:14;;;;;;;13.70;8.23;;;5.60;99.90;;;;;;4962273;28;20043;-67
2023/04/30 01:47:47;;;;;;;15.77;8.63;;;5.60;99.90;;;;;;4963550;28;20039;-66
2023/04/30 01:50:32;;;;;;;12.80;8.32;;;5.50;99.90;;;;;;4962699;28;20110;-64
2023/04/30 01:53:05;;;;;;;13.35;8.40;;;5.50;99.90;;;;;;4963270;28;20121;-63
2023/04/30 01:55:33;;;;;;;12.77;8.55;;;5.50;99.90;;;;;;4962793;28;20042;-69
2023/04/30 01:58:02;;;;;;;15.18;8.65;;;5.50;99.90;;;;;;4962697;28;20070;-55
2023/04/30 02:00:31;;;;;;;14.90;8.65;;;5.40;99.90;;;;;;4963041;28;20043;-59
2023/04/30 02:02:58;;;;;;;11.18;8.35;;;5.50;99.90;;;;;;4962423;28;20130;-59
2023/04/30 02:05:23;;;;;;;11.32;8.63;;;5.40;99.90;;;;;;4963190;28;20136;-62
2023/04/30 02:07:50;;;;;;;12.30;8.15;;;5.50;99.90;;;;;;4963117;28;20078;-66
2023/04/30 02:10:19;;;;;;;17.02;8.80;;;5.40;99.90;;;;;;4962716;28;20043;-61
2023/04/30 02:12:45;;;;;;;13.00;8.95;;;5.40;99.90;;;;;;4962945;28;20078;-67
2023/04/30 02:15:11;;;;;;;13.35;8.13;;;5.40;99.90;;;;;;4962117;28;20149;-61
2023/04/30 02:17:37;;;;;;;12.23;8.10;;;5.40;99.90;;;;;;4962773;28;20133;-67
2023/04/30 02:20:03;;;;;;;11.10;7.72;;;5.40;99.90;;;;;;4962330;28;20218;-67
2023/04/30 02:22:29;;;;;;;14.20;8.15;;;5.40;99.90;;;;;;4962556;28;20179;-61
2023/04/30 02:24:56;;;;;;;12.20;7.03;;;5.40;99.90;;;;;;4963359;28;20352;-68
2023/04/30 02:27:24;;;;;;;11.07;7.75;;;5.50;99.90;;;;;;4962200;28;20046;-60
2023/04/30 02:29:49;;;;;;;10.93;8.45;;;5.50;99.90;;;;;;4962203;28;20128;-61
2023/04/30 02:32:15;;;;;;;9.13;7.28;;;5.50;99.90;;;;;;4962864;28;20070;-61
2023/04/30 02:34:41;;;;;;;10.40;7.30;;;5.80;99.90;;;;;;4962160;28;20053;-63
2023/04/30 02:37:07;;;;;;;13.23;8.15;;;5.40;99.90;;;;;;4963092;28;20481;-60
2023/04/30 02:39:33;;;;;;;13.02;8.30;;;5.60;99.90;;;;;;4962402;28;20066;-61
2023/04/30 02:41:59;;;;;;;12.07;7.50;;;5.60;99.90;;;;;;4962998;28;20047;-57
2023/04/30 02:44:25;;;;;;;15.35;8.57;;;5.40;99.90;;;;;;4963691;28;20129;-61
2023/04/30 02:46:51;;;;;;;11.13;7.47;;;5.30;99.90;;;;;;4966856;28;20072;-69
2023/04/30 02:49:16;;;;;;;19.23;8.00;;;5.30;99.90;;;;;;4966683;28;20111;-65
2023/04/30 02:51:42;;;;;;;15.27;8.43;;;5.40;99.90;;;;;;4965845;28;20541;-61
2023/04/30 02:54:08;;;;;;;13.88;8.48;;;5.50;99.90;;;;;;4966429;28;20094;-61
2023/04/30 02:56:34;;;;;;;11.80;8.27;;;5.20;99.90;;;;;;4966366;28;20054;-59
2023/04/30 02:59:00;;;;;;;14.55;9.13;;;5.20;99.90;;;;;;4965803;28;20034;-66
2023/04/30 03:01:26;;;;;;;12.85;8.93;;;5.10;99.90;;;;;;4966040;28;20383;-67
2023/04/30 03:03:51;;;;;;;12.98;8.30;;;5.10;99.90;;;;;;4965858;28;20110;-62
2023/04/30 03:06:17;;;;;;;14.10;9.15;;;5.30;99.90;;;;;;4965307;28;20054;-57
2023/04/30 03:08:42;;;;;;;15.15;8.93;;;5.10;99.90;;;;;;4965556;28;20050;-61
2023/04/30 03:11:08;;;;;;;11.93;8.63;;;5.10;99.90;;;;;;4965877;28;20049;-67
2023/04/30 03:13:34;;;;;;;16.85;9.38;;;5.20;99.90;;;;;;4965259;28;20513;-68
2023/04/30 03:16:00;;;;;;;15.25;10.80;;;5.20;99.90;;;;;;4965941;28;20051;-58
2023/04/30 03:18:27;;;;;;;17.90;11.82;;;5.10;99.90;;;;;;4965697;28;20102;-67
2023/04/30 03:20:53;;;;;;;15.55;11.02;;;5.10;99.90;;;;;;4965787;28;20125;-58
2023/04/30 03:23:19;;;;;;;15.98;10.93;;;5.00;99.90;;;;;;4966374;28;20624;-65
2023/04/30 03:25:45;;;;;;;17.65;10.38;;;5.00;99.90;;;;;;4965290;28;20493;-61
2023/04/30 03:28:10;;;;;;;16.10;10.18;;;4.90;99.90;;;;;;4963626;28;20248;-57
2023/04/30 03:30:36;;;;;;;18.50;11.23;;;4.90;99.90;;;;;;4965573;28;20425;-65
2023/04/30 03:33:02;;;;;;;15.82;11.27;;;4.90;99.90;;;;;;4965091;28;20130;-59
2023/04/30 03:35:27;;;;;;;17.52;11.38;;;4.90;99.90;;;;;;4966265;28;20050;-60
2023/04/30 03:37:53;;;;;;;19.83;12.05;;;4.90;99.90;;;;;;4965366;28;20050;-63
2023/04/30 03:40:19;;;;;;;14.32;10.18;;;4.90;99.90;;;;;;4965205;28;20105;-63
2023/04/30 03:42:44;;;;;;;12.63;9.23;;;4.90;99.90;;;;;;4964981;28;20478;-63
2023/04/30 03:45:10;;;;;;;15.18;9.88;;;5.00;99.90;;;;;;4966299;28;20057;-60
2023/04/30 03:47:36;;;;;;;17.20;9.70;;;4.90;99.90;;;;;;4965542;28;20653;-67
2023/04/30 03:50:02;;;;;;;17.23;9.60;;;4.80;99.90;;;;;;4965089;28;20042;-64
2023/04/30 03:52:30;;;;;;;13.55;8.27;;;4.80;99.90;;;;;;4965803;28;20050;-62
2023/04/30 03:54:55;;;;;;;13.68;8.70;;;4.80;99.90;;;;;;4965279;28;20118;-66
2023/04/30 03:57:21;;;;;;;11.13;8.48;;;5.30;99.90;;;;;;4965055;28;20122;-58
2023/04/30 03:59:48;;;;;;;12.90;8.90;;;4.70;99.90;;;;;;4964073;28;20047;-67
2023/04/30 04:02:14;;;;;;;15.13;8.85;;;4.70;99.90;;;;;;4963035;28;20061;-58
2023/04/30 04:04:41;;;;;;;14.65;9.30;;;4.70;99.90;;;;;;4964919;28;20647;-68
2023/04/30 04:07:08;;;;;;;13.85;9.43;;;4.80;99.90;;;;;;4964734;28;20512;-69
2023/04/30 04:09:34;;;;;;;10.13;7.57;;;4.90;99.90;;;;;;4964105;28;20273;-67
2023/04/30 04:12:00;;;;;;;13.20;9.07;;;4.90;99.90;;;;;;4965522;28;20039;-69
2023/04/30 04:14:26;;;;;;;14.90;8.27;;;4.90;99.90;;;;;;4963783;28;20552;-64
2023/04/30 04:16:51;;;;;;;11.32;7.95;;;4.90;99.90;;;;;;4965027;28;20043;-69
2023/04/30 04:19:17;;;;;;;12.50;7.45;;;4.90;99.90;;;;;;4964992;28;20035;-57
2023/04/30 04:21:43;;;;;;;13.27;8.27;;;4.90;99.90;;;;;;4964658;28;20057;-68
2023/04/30 04:24:09;;;;;;;11.98;7.40;;;4.80;99.90;;;;;;4964429;28;20051;-67
2023/04/30 04:26:36;;;;;;;10.95;7.20;;;4.80;99.90;;;;;;4964966;28;20118;-57
2023/04/30 04:29:07;;;;;;;13.55;7.60;;;4.80;99.90;;;;;;4964214;28;20524;-57
2023/04/30 04:31:33;;;;;;;13.18;7.70;;;4.80;99.90;;;;;;4963152;28;20055;-65
2023/04/30 04:34:01;;;;;;;13.65;7.18;;;4.90;99.90;;;;;;4964831;28;20090;-69
2023/04/30 04:36:27;;;;;;;11.27;6.93;;;4.90;99.90;;;;;;4964355;28;20062;-67
2023/04/30 04:38:56;;;;;;;10.32;6.32;;;5.00;99.90;;;;;;4964351;28;20055;-68
2023/04/30 04:41:23;;;;;;;13.40;6.97;;;5.00;99.90;;;;;;4964306;28;20073;-68
2023/04/30 04:43:49;;;;;;;13.45;7.10;;;5.00;99.90;;;;;;4963707;28;20050;-67
2023/04/30 04:46:15;;;;;;;10.02;6.68;;;5.00;99.90;;;;;;4963486;28;20050;-62
2023/04/30 04:48:41;;;;;;;15.73;6.97;;;5.00;99.90;;;;;;4964875;28;20418;-66
2023/04/30 04:51:08;;;;;;;13.02;6.95;;;5.30;99.90;;;;;;4964226;28;20052;-61
2023/04/30 04:53:33;;;;;;;10.80;7.35;;;5.10;99.90;;;;;;4964639;28;20101;-68
2023/04/30 04:55:59;;;;;;;11.85;6.78;;;5.10;99.90;;;;;;4963541;28;20051;-61
2023/04/30 04:58:25;;;;;;;12.07;6.85;;;5.20;99.90;;;;;;4962959;28;20486;-68
2023/04/30 05:00:51;;;;;;;11.30;6.80;;;5.60;99.90;;;;;;4964252;28;20113;-64
2023/04/30 05:03:19;;;;;;;14.77;5.93;;;6.10;99.90;;;;;;4963317;28;20398;-61
2023/04/30 05:05:45;;;;;;;10.52;5.90;;;6.70;99.90;;;;;;4964570;28;20504;-65
2023/04/30 05:08:11;;;;;;;13.20;5.90;;;7.30;99.90;;;;;;4963088;28;20415;-62
2023/04/30 05:10:37;;;;;;;10.40;5.65;;;7.40;99.90;;;;;;4963912;28;20043;-56
2023/04/30 05:13:03;;;;;;;11.07;5.55;;;7.70;99.90;;;;;;4962891;28;20126;-61
2023/04/30 05:15:28;;;;;;;11.02;5.03;;;8.20;99.90;;;;;;4963494;28;20065;-66
2023/04/30 05:17:54;;;;;;;10.90;5.03;;;8.50;99.90;;;;;;4963929;28;20379;-68
2023/04/30 05:20:20;;;;;;;11.18;4.53;;;8.90;99.90;;;;;;4963014;28;20129;-62
2023/04/30 05:22:45;;;;;;;12.98;4.57;;;9.00;99.90;;;;;;4962944;28;20051;-67
2023/04/30 05:25:11;;;;;;;9.80;4.78;;;8.90;99.90;;;;;;4963937;28;20051;-59
2023/04/30 05:27:37;;;;;;;14.18;5.00;;;8.70;99.90;;;;;;4962663;28;20047;-66
2023/04/30 05:30:03;;;;;;;14.50;4.93;;;8.10;99.90;;;;;;4963772;28;20074;-63
2023/04/30 05:32:28;;;;;;;14.68;5.20;;;8.00;99.90;;;;;;4963420;28;20054;-60
2023/04/30 05:34:54;;;;;;;12.13;4.75;;;7.80;99.90;;;;;;4963703;28;20138;-68
2023/04/30 05:37:21;;;;;;;15.32;4.85;;;7.50;99.90;;;;;;4962731;28;20074;-63
2023/04/30 05:39:47;;;;;;;12.20;4.80;;;7.30;99.90;;;;;;4963494;28;20303;-59
2023/04/30 05:42:13;;;;;;;13.30;4.85;;;7.20;99.90;;;;;;4963184;28;20070;-66
2023/04/30 05:44:40;;;;;;;9.55;4.65;;;7.20;99.90;;;;;;4961864;28;20528;-63
2023/04/30 05:47:05;;;;;;;13.88;4.70;;;7.30;99.90;;;;;;4964510;28;20082;-67
2023/04/30 05:49:31;;;;;;;10.70;4.35;;;7.10;99.90;;;;;;4964233;28;20092;-60
2023/04/30 05:51:57;;;;;;;12.77;4.50;;;7.00;99.90;;;;;;4963508;28;20215;-68
2023/04/30 05:54:22;;;;;;;10.52;4.75;;;6.90;99.90;;;;;;4961204;28;20047;-64
2023/04/30 05:56:48;;;;;;;13.05;4.75;;;7.00;99.90;;;;;;4962619;28;20125;-66
2023/04/30 05:59:13;;;;;;;14.32;4.55;;;6.90;99.90;;;;;;4962601;28;20128;-66
2023/04/30 06:01:39;;;;;;;9.68;4.50;;;6.90;99.90;;;;;;4962733;28;20153;-59
2023/04/30 06:04:05;;;;;;;12.60;4.60;;;6.90;99.90;;;;;;4962841;28;20031;-64
2023/04/30 06:06:30;;;;;;;9.02;4.55;;;7.00;99.90;;;;;;4963036;28;20055;-67
2023/04/30 06:08:56;;;;;;;12.95;4.85;;;7.00;99.90;;;;;;4961421;28;20047;-59
2023/04/30 06:11:24;;;;;;;10.77;3.80;;;7.10;99.90;;;;;;4962364;28;20471;-68
2023/04/30 06:13:50;;;;;;;11.30;3.60;;;7.80;99.90;;;;;;4960932;28;20054;-59
2023/04/30 06:16:16;;;;;;;12.95;4.15;;;8.80;99.90;;;;;;4961528;28;20055;-68
2023/04/30 06:18:41;;;;;;;11.27;3.58;;;9.20;99.90;;;;;;4962462;28;20101;-56
2023/04/30 06:21:07;;;;;;;11.65;4.00;;;9.30;99.90;;;;;;4962865;28;20109;-66
2023/04/30 06:23:32;;;;;;;11.00;3.95;;;9.70;99.90;;;;;;4963016;28;20314;-66
2023/04/30 06:25:58;;;;;;;9.93;3.78;;;10.40;99.90;;;;;;4962297;28;20145;-55
2023/04/30 06:28:24;;;;;;;12.90;3.53;;;11.20;99.90;;;;;;4961741;28;20047;-68
2023/04/30 06:30:51;;;;;;;9.85;3.17;;;11.80;99.90;;;;;;4962951;28;20075;-60
2023/04/30 06:33:16;;;;;;;10.23;3.35;;;12.20;99.90;;;;;;4962554;28;20031;-67
2023/04/30 06:35:42;;;;;;;11.50;3.28;;;12.70;99.90;;;;;;4962720;28;20057;-62
2023/04/30 06:38:08;;;;;;;14.55;3.42;;;12.80;99.90;;;;;;4962522;28;20054;-62
2023/04/30 06:40:34;;;;;;;9.02;2.85;;;12.80;99.90;;;;;;4960918;28;20065;-66
2023/04/30 06:43:00;;;;;;;9.82;3.13;;;13.00;99.90;;;;;;4961563;28;20081;-62
2023/04/30 06:45:25;;;;;;;10.05;2.95;;;13.20;99.90;;;;;;4962429;28;20525;-69
2023/04/30 06:47:52;;;;;;;9.43;3.33;;;13.10;99.90;;;;;;4962877;28;20506;-67
2023/04/30 06:50:18;;;;;;;7.53;3.05;;;13.30;99.90;;;;;;4962509;28;20055;-61
2023/04/30 06:52:43;;;;;;;10.07;3.30;;;13.40;99.90;;;;;;4962166;28;20481;-55
2023/04/30 06:55:10;;;;;;;7.82;3.10;;;13.80;99.90;;;;;;4962665;28;20545;-55
2023/04/30 06:57:36;;;;;;;8.85;2.80;;;13.90;99.90;;;;;;4961759;28;20335;-57
2023/04/30 07:00:04;;;;;;;7.45;2.60;;;14.00;98.70;;;;;;4960436;28;20525;-68
2023/04/30 07:02:30;;;;;;;9.70;2.85;;;14.20;98.60;;;;;;4962334;28;20343;-69
2023/04/30 07:04:56;;;;;;;9.85;2.92;;;13.90;98.30;;;;;;4962752;28;20043;-57
2023/04/30 07:07:22;;;;;;;9.80;2.58;;;13.70;96.60;;;;;;4962201;28;20057;-60
2023/04/30 07:09:47;;;;;;;7.53;2.90;;;13.70;97.30;;;;;;4962861;28;20047;-69
2023/04/30 07:12:13;;;;;;;10.52;3.25;;;13.30;96.70;;;;;;4962111;28;20043;-61
2023/04/30 07:14:39;;;;;;;9.57;3.15;;;12.90;97.60;;;;;;4962403;28;20055;-67
2023/04/30 07:17:04;;;;;;;10.15;3.03;;;12.20;98.60;;;;;;4962069;28;20296;-70
2023/04/30 07:19:31;;;;;;;13.82;3.00;;;11.80;99.90;;;;;;4962264;28;20389;-61
2023/04/30 07:21:57;;;;;;;10.30;2.72;;;11.60;99.90;;;;;;4961307;28;20046;-69
2023/04/30 07:24:22;;;;;;;11.05;2.97;;;11.30;99.90;;;;;;4960091;28;20548;-60
2023/04/30 07:26:48;;;;;;;10.40;2.78;;;11.20;99.90;;;;;;4963356;28;20478;-69
2023/04/30 07:29:14;;;;;;;11.60;3.33;;;10.90;99.90;;;;;;4962291;28;20474;-61
2023/04/30 07:31:39;;;;;;;9.27;3.05;;;10.80;99.90;;;;;;4963880;28;20164;-61
2023/04/30 07:34:05;;;;;;;7.55;2.80;;;10.80;99.90;;;;;;4965066;28;20620;-67
2023/04/30 07:36:31;;;;;;;11.00;2.72;;;10.80;99.90;;;;;;4965427;28;20050;-56
2023/04/30 07:38:56;;;;;;;8.48;2.40;;;10.80;99.90;;;;;;4966046;28;20049;-69
2023/04/30 07:41:24;;;;;;;8.55;2.90;;;10.70;99.90;;;;;;4966077;28;20354;-67
2023/04/30 07:43:49;;;;;;;9.32;2.95;;;10.70;99.90;;;;;;4964442;28;20478;-65
2023/04/30 07:46:15;;;;;;;8.10;2.80;;;10.70;99.90;;;;;;4965950;28;20106;-69
2023/04/30 07:48:40;;;;;;;7.25;3.17;;;10.80;99.90;;;;;;4965545;28;20102;-63
2023/04/30 07:51:06;;;;;;;8.95;3.22;;;10.90;99.90;;;;;;4965885;28;20062;-69
2023/04/30 07:53:32;;;;;;;6.57;2.80;;;11.00;99.90;;;;;;4966127;28;20042;-57
2023/04/30 07:55:57;;;;;;;7.47;3.05;;;11.20;99.90;;;;;;4965374;28;20134;-62
2023/04/30 07:58:23;;;;;;;7.07;3.25;;;11.40;99.90;;;;;;4962632;28;20042;-70
2023/04/30 08:00:49;;;;;;;8.77;3.40;;;11.80;99.90;;;;;;4967644;28;20050;-58
2023/04/30 08:03:14;;;;;;;7.93;3.05;;;12.40;99.90;;;;;;4968149;28;20130;-68
2023/04/30 08:05:40;;;;;;;12.57;3.30;;;13.00;99.90;;;;;;4967915;28;20046;-68
2023/04/30 08:08:06;;;;;;;7.38;2.63;;;13.30;98.30;;;;;;4964695;28;20038;-62
2023/04/30 08:10:32;;;;;;;7.13;2.58;;;13.10;97.00;;;;;;4968152;28;20054;-65
2023/04/30 08:12:57;;;;;;;8.52;3.00;;;12.70;97.30;;;;;;4966871;28;20050;-66
2023/04/30 08:15:23;;;;;;;11.70;3.20;;;12.30;98.80;;;;;;4965908;28;20051;-68
2023/04/30 08:17:50;;;;;;;6.47;3.28;;;12.20;99.60;;;;;;4966732;28;20054;-64
2023/04/30 08:20:16;;;;;;;8.95;2.85;;;12.30;99.70;;;;;;4967725;28;20038;-63
2023/04/30 08:22:42;;;;;;;10.43;3.05;;;12.30;99.70;;;;;;4965378;28;20125;-55
2023/04/30 08:25:10;;;;;;;9.10;3.63;;;12.30;99.90;;;;;;4964881;28;21131;-62
2023/04/30 08:27:36;;;;;;;9.10;3.15;;;12.30;99.90;;;;;;4964120;28;20050;-71
2023/04/30 08:30:02;;;;;;;9.93;3.42;;;12.40;99.90;;;;;;4964590;28;20047;-64
2023/04/30 08:32:29;;;;;;;10.35;3.10;;;12.60;99.90;;;;;;4963912;28;20556;-72
2023/04/30 08:34:54;;;;;;;11.93;3.47;;;12.70;99.90;;;;;;4962082;28;20042;-66
2023/04/30 08:37:20;;;;;;;9.15;2.47;;;12.70;99.90;;;;;;4961438;28;20053;-65
2023/04/30 08:39:46;;;;;;;6.40;2.60;;;12.70;99.90;;;;;;4963400;28;20549;-67
2023/04/30 08:42:13;;;;;;;7.47;2.88;;;12.60;99.90;;;;;;4961283;28;20042;-59
2023/04/30 08:44:42;;;;;;;10.45;3.08;;;12.50;99.90;;;;;;4963401;28;20794;-71
2023/04/30 08:47:12;;;;;;;9.70;2.70;;;12.50;99.90;;;;;;4962612;28;20171;-63
2023/04/30 08:49:37;;;;;;;8.18;3.15;;;12.60;99.40;;;;;;4963141;28;20045;-66
2023/04/30 08:52:03;;;;;;;10.00;3.40;;;12.70;99.80;;;;;;4962902;28;20374;-63
2023/04/30 08:54:31;;;;;;;10.00;2.70;;;12.70;99.90;;;;;;4962860;28;20027;-68
2023/04/30 08:56:57;;;;;;;8.00;2.72;;;13.00;99.90;;;;;;4961886;28;20047;-63
2023/04/30 08:59:23;;;;;;;8.32;2.78;;;13.30;99.40;;;;;;4962868;28;20202;-68
2023/04/30 09:01:48;;;;;;;6.18;2.60;;;13.50;99.20;;;;;;4962111;28;20117;-71
2023/04/30 09:04:14;;;;;;;11.73;2.97;;;13.70;98.80;;;;;;4961767;28;20051;-63
2023/04/30 09:06:40;;;;;;;6.22;2.38;;;13.70;97.80;;;;;;4961672;28;20535;-68
2023/04/30 09:09:11;;;;;;;10.25;2.72;;;13.70;97.10;;;;;;4962728;28;20171;-62
2023/04/30 09:11:37;;;;;;;8.48;2.72;;;13.50;96.60;;;;;;4960018;28;20481;-71
2023/04/30 09:14:03;;;;;;;9.30;2.90;;;13.60;97.90;;;;;;4961727;28;20035;-63
2023/04/30 09:16:49;;;;;;;8.13;2.85;;;13.70;97.10;;;;;;4959980;28;20055;-70
2023/04/30 09:19:29;;;;;;;7.38;2.63;;;13.90;95.50;;;;;;4958615;28;20291;-64
2023/04/30 09:21:55;;;;;;;7.05;2.70;;;14.10;96.80;;;;;;4960713;28;20406;-68
2023/04/30 09:24:21;;;;;;;5.93;2.75;;;14.10;96.20;;;;;;4963342;28;20410;-64
2023/04/30 09:26:48;;;;;;;9.73;2.83;;;14.20;95.90;;;;;;4962377;28;20059;-65
2023/04/30 09:29:14;;;;;;;6.47;2.75;;;14.30;96.20;;;;;;4964193;28;20386;-58
2023/04/30 09:31:43;;;;;;;9.38;3.00;;;14.30;95.70;;;;;;4963499;28;20087;-65
2023/04/30 09:34:09;;;;;;;6.22;2.72;;;14.40;95.70;;;;;;4962523;28;20078;-62
2023/04/30 09:36:35;;;;;;;8.98;3.15;;;14.50;96.00;;;;;;4962947;28;20311;-66
2023/04/30 09:39:12;;;;;;;6.82;3.20;;;14.60;96.10;;;;;;4963799;28;20050;-71
2023/04/30 09:41:38;;;;;;;5.72;2.58;;;14.60;95.10;;;;;;4965979;28;20034;-65
2023/04/30 09:44:04;;;;;;;7.75;2.55;;;14.70;95.80;;;;;;4963777;28;20042;-69
2023/04/30 09:46:32;;;;;;;9.02;2.63;;;14.80;95.00;;;;;;4965924;28;20105;-72
2023/04/30 09:49:02;;;;;;;10.70;3.00;;;14.70;92.40;;;;;;4964966;28;20166;-64
2023/04/30 09:51:28;;;;;;;9.00;3.40;;;14.20;92.40;;;;;;4963550;28;20121;-69
2023/04/30 09:53:55;;;;;;;9.13;3.30;;;13.70;93.40;;;;;;4963796;28;20150;-63
2023/04/30 09:56:25;;;;;;;8.38;3.30;;;13.40;94.60;;;;;;4967954;28;20109;-60
2023/04/30 09:58:52;;;;;;;9.45;3.05;;;13.50;94.80;;;;;;4965918;28;20039;-70
2023/04/30 10:01:19;;;;;;;8.32;2.90;;;13.60;93.70;;;;;;4964049;28;20054;-68
2023/04/30 10:03:46;;;;;;;7.97;3.20;;;13.50;93.40;;;;;;4962235;28;20047;-70
2023/04/30 10:06:17;;;;;;;6.40;2.58;;;13.20;93.70;;;;;;4961906;28;20046;-66
2023/04/30 10:08:47;;;;;;;7.93;3.13;;;13.20;93.40;;;;;;4963094;28;20061;-68
2023/04/30 10:11:17;;;;;;;9.27;3.47;;;13.30;93.80;;;;;;4962134;28;20066;-69
2023/04/30 10:14:00;;;;;;;9.23;2.88;;;13.60;93.90;;;;;;4962592;28;20430;-66
2023/04/30 10:16:38;;;;;;;12.93;3.03;;;13.80;93.30;;;;;;4962451;28;20406;-69
2023/04/30 10:19:10;;;;;;;9.57;4.93;;;14.20;93.80;;;;;;4962854;28;20416;-73
2023/04/30 10:21:41;;;;;;;6.22;2.95;;;14.40;93.40;;;;;;4962038;28;20105;-66
2023/04/30 10:24:09;;;;;;;7.47;2.30;;;14.60;93.90;;;;;;4964155;28;20099;-62
2023/04/30 10:26:35;;;;;;;6.60;2.60;;;14.60;93.50;;;;;;4964576;28;20047;-59
2023/04/30 10:29:02;;;;;;;7.68;3.65;;;14.60;92.40;;;;;;4963820;28;20117;-62
2023/04/30 10:31:29;;;;;;;14.13;3.67;;;14.60;93.20;;;;;;4962799;28;21000;-71
2023/04/30 10:34:08;;;;;;;7.20;2.97;;;14.90;93.60;;;;;;4962522;28;20441;-64
2023/04/30 10:36:43;;;;;;;6.93;2.65;;;15.40;93.80;;;;;;4961663;28;20038;-67
2023/04/30 10:39:09;;;;;;;;;;;15.90;93.10;;;;;;4962946;28;20050;-67
2023/04/30 10:41:35;;;;;;;6.72;2.60;;;16.00;93.20;;;;;;4962284;28;19924;-72
2023/04/30 10:44:01;;;;;;;8.77;2.65;;;16.00;92.00;;;;;;4961972;28;20520;-63
2023/04/30 10:46:27;;;;;;;4.68;2.30;;;15.50;92.40;;;;;;4962713;28;20078;-70
2023/04/30 10:48:56;;;;;;;6.80;2.78;;;15.60;92.50;;;;;;4962851;28;20047;-68
2023/04/30 10:51:22;;;;;;;5.80;2.58;;;15.90;92.10;;;;;;4962629;28;20138;-71
2023/04/30 10:53:53;;;;;;;5.40;2.50;;;16.30;92.50;;;;;;4962480;28;20121;-62
2023/04/30 10:56:32;;;;;;;7.18;2.53;;;16.50;90.60;;;;;;4964796;28;20058;-67
2023/04/30 10:59:02;;;;;;;6.15;2.30;;;16.40;90.00;;;;;;4964665;28;20117;-71
2023/04/30 11:01:28;;;;;;;7.03;2.55;;;16.10;90.70;;;;;;4963639;28;20050;-73
2023/04/30 11:04:07;;;;;;;7.95;2.63;;;15.80;90.40;;;;;;4962778;28;20129;-63
2023/04/30 11:06:51;;;;;;;5.65;2.50;;;15.70;90.90;;;;;;4965968;28;20101;-69
2023/04/30 11:09:17;;;;;;;8.23;2.70;;;16.00;91.50;;;;;;4966110;28;20053;-69
2023/04/30 11:11:46;;;;;;;5.00;2.22;;;16.30;91.70;;;;;;4964706;28;20618;-58
2023/04/30 11:14:18;;;;;;;7.50;2.72;;;16.50;91.00;;;;;;4966165;28;20117;-65
2023/04/30 11:16:48;;;;;;;6.70;2.42;;;16.60;91.50;;;;;;4966292;28;20140;-65
2023/04/30 11:19:14;;;;;;;10.27;2.97;;;16.70;91.60;;;;;;4965786;28;20038;-73
2023/04/30 11:21:41;;;;;;;6.85;2.38;;;16.90;92.00;;;;;;4966141;28;20046;-74
2023/04/30 11:24:07;;;;;;;5.78;2.90;;;16.90;91.40;;;;;;4965430;28;20043;-58
2023/04/30 11:27:04;;;;;;;8.20;2.80;;;17.00;91.70;;;;;;4963963;28;20373;-75
2023/04/30 11:29:31;;;;;;;6.75;2.28;;;17.10;90.50;;;;;;4965870;28;20058;-62
2023/04/30 11:32:00;;;;;;;6.15;2.30;;;17.30;91.40;;;;;;4964841;28;20300;-63
2023/04/30 11:34:26;;;;;;;7.65;2.20;;;17.30;91.30;;;;;;4965922;28;20421;-67
2023/04/30 11:36:57;;;;;;;6.95;2.47;;;17.40;91.40;;;;;;4965669;28;20054;-70
2023/04/30 11:39:25;;;;;;;8.25;2.30;;;17.70;91.50;;;;;;4965682;28;20590;-60
2023/04/30 11:41:51;;;;;;;10.35;2.67;;;17.80;90.80;;;;;;4965265;28;20039;-71
2023/04/30 11:44:25;;;;;;;9.38;2.58;;;17.60;91.60;;;;;;4965436;28;20062;-65
2023/04/30 11:46:51;;;;;;;;;;;17.60;89.60;;;;;;4965438;28;20045;-64
2023/04/30 11:49:17;;;;;;;5.63;2.20;;;17.30;90.10;;;;;;4965996;28;19918;-74
2023/04/30 11:51:48;;;;;;;5.55;1.80;;;17.00;91.00;;;;;;4964129;28;20121;-62
2023/04/30 11:54:14;;;;;;;5.75;2.42;;;17.00;91.40;;;;;;4967035;28;20141;-66
2023/04/30 11:56:47;;;;;;;6.75;2.22;;;17.00;91.10;;;;;;4964618;28;20043;-56
2023/04/30 11:59:13;;;;;;;3.30;1.92;;;17.00;91.60;;;;;;4964835;28;20055;-55
2023/04/30 12:01:39;;;;;;;7.05;2.40;;;17.00;91.70;;;;;;4964019;28;20038;-66
2023/04/30 12:04:05;;;;;;;8.32;2.70;;;17.20;92.10;;;;;;4965197;28;20068;-58
2023/04/30 12:06:31;;;;;;;7.93;2.60;;;17.30;91.60;;;;;;4965140;28;20055;-63
2023/04/30 12:09:00;;;;;;;5.65;2.10;;;17.40;91.50;;;;;;4946930;28;20066;-60
2023/04/30 12:11:30;;;;;;;6.45;2.33;;;17.50;91.10;;;;;;4962839;28;20051;-66
2023/04/30 12:13:59;;;;;;;5.90;2.10;;;17.30;90.80;;;;;;4963433;28;20126;-56
2023/04/30 12:16:37;;;;;;;6.05;2.33;;;17.20;91.50;;;;;;4964145;28;20046;-65
2023/04/30 12:19:02;;;;;;;5.70;2.78;;;17.20;91.40;;;;;;4967525;28;20038;-68
2023/04/30 12:21:28;;;;;;;5.45;2.63;;;17.30;91.90;;;;;;4967674;28;20185;-62
2023/04/30 12:23:54;;;;;;;8.38;2.92;;;17.50;91.50;;;;;;4963763;28;20035;-69
2023/04/30 12:26:20;;;;;;;6.50;2.45;;;17.60;91.60;;;;;;4964263;28;20272;-60
2023/04/30 12:28:48;;;;;;;7.28;2.35;;;17.70;91.90;;;;;;4964912;28;20117;-66
2023/04/30 12:31:17;;;;;;;5.50;2.75;;;17.70;91.60;;;;;;4964163;28;20049;-61
2023/04/30 12:33:42;;;;;;;6.72;2.45;;;17.50;91.90;;;;;;4965194;28;20540;-70
2023/04/30 12:36:12;;;;;;;6.70;2.20;;;17.50;91.70;;;;;;4964730;28;20043;-65
2023/04/30 12:38:42;;;;;;;7.63;2.85;;;17.50;91.40;;;;;;4963821;28;20061;-70
2023/04/30 12:41:13;;;;;;;5.55;2.60;;;17.60;90.40;;;;;;4964150;28;20039;-60
2023/04/30 12:43:39;;;;;;;7.93;2.30;;;17.30;91.20;;;;;;4964245;28;20125;-61
2023/04/30 12:46:05;;;;;;;4.93;2.30;;;17.40;91.80;;;;;;4963682;28;20142;-67